Ross, Texas
Current Conditions -  °F | °C
As of 10:55 AM on Saturday 25 Oct 2014 (Local Time) from KCNW Reporting Station
Clear Clear  
Wind Chill: 75°   Ceiling: Unl
Heat Index: 75°   Visibility: 10mi
Dew Point: 61°   Wind: 8mph
Humidity: 61%   Direction: 190°S
Pressure: 30.18"   Gusts: NA
Location:  31.72°N, 97.12°W
Report Text: KCNW 251555Z 19007KT 10SM SKC 24/16 A3018
Loading
Personal Weather Stations






























Interactive Weather Map New forecast layout! Learn more

10-Day Weather Forecast

Advertisements
Track Severe Weather on mobile